IBE079 LICR-LGIR
Flight info
| Callsign | IBE079 |
|---|---|
| Flight time | 1h 25m |
| Altitude | 37000 |
| Route | BERMI DCT INROF DCT LEVDI T340 INKOP M978 OTREX DCT OTREX |
| Aircraft | A320/M-SDE3FGHIRWY/LB1 |
Departure
| Time | 2026-05-07 15:12 |
|---|---|
| Airport | Reggio Calabria Airport (LICR) |
Arrival
| Time | 2026-05-07 16:37 |
|---|---|
| Airport | Heraklion International Nikos Kazantzakis Airport (LGIR) |
| Time | Latitude | Longitude | Altitude | Speed | Heading |
|---|---|---|---|---|---|
| 2026-05-07 14:57 | 38.07253 | 15.65372 | 49 ft | 0 kts | 121° |
| 2026-05-07 15:05 | 38.07253 | 15.65371 | 49 ft | 2 kts | 121° |
| 2026-05-07 15:05 | 38.07264 | 15.65361 | 46 ft | 4 kts | 22° |
| 2026-05-07 15:05 | 38.07247 | 15.65348 | 44 ft | 2 kts | 74° |
| 2026-05-07 15:05 | 38.07245 | 15.65319 | 48 ft | 4 kts | 122° |
| 2026-05-07 15:06 | 38.07264 | 15.65298 | 49 ft | 4 kts | 154° |
| 2026-05-07 15:06 | 38.07274 | 15.65292 | 49 ft | 1 kts | 153° |
| 2026-05-07 15:06 | 38.07275 | 15.65292 | 49 ft | 0 kts | 153° |
| 2026-05-07 15:08 | 38.07274 | 15.65292 | 49 ft | 1 kts | 153° |
| 2026-05-07 15:08 | 38.07281 | 15.65319 | 48 ft | 10 kts | 49° |
| 2026-05-07 15:09 | 38.07339 | 15.65220 | 49 ft | 17 kts | 261° |
| 2026-05-07 15:09 | 38.07297 | 15.65125 | 49 ft | 15 kts | 248° |
| 2026-05-07 15:09 | 38.07384 | 15.64990 | 52 ft | 26 kts | 327° |
| 2026-05-07 15:09 | 38.07528 | 15.64891 | 53 ft | 21 kts | 334° |
| 2026-05-07 15:10 | 38.07651 | 15.64816 | 57 ft | 17 kts | 334° |
| 2026-05-07 15:10 | 38.07747 | 15.64757 | 62 ft | 13 kts | 333° |
| 2026-05-07 15:10 | 38.07819 | 15.64710 | 63 ft | 13 kts | 333° |
| 2026-05-07 15:10 | 38.07948 | 15.64625 | 71 ft | 22 kts | 332° |
| 2026-05-07 15:11 | 38.08062 | 15.64549 | 83 ft | 16 kts | 330° |
| 2026-05-07 15:11 | 38.08132 | 15.64490 | 85 ft | 6 kts | 13° |
| 2026-05-07 15:11 | 38.08113 | 15.64512 | 86 ft | 17 kts | 148° |
| 2026-05-07 15:11 | 38.07750 | 15.64748 | 59 ft | 96 kts | 153° |
| 2026-05-07 15:12 | 38.06963 | 15.65258 | 38 ft | 154 kts | 153° |
| 2026-05-07 15:12 | 38.06010 | 15.65906 | 760 ft | 149 kts | 154° |
| 2026-05-07 15:12 | 38.04995 | 15.65996 | 1483 ft | 156 kts | 200° |
| 2026-05-07 15:12 | 38.04027 | 15.65242 | 2175 ft | 172 kts | 205° |
| 2026-05-07 15:13 | 38.02952 | 15.64379 | 2629 ft | 194 kts | 205° |
| 2026-05-07 15:13 | 38.01770 | 15.63441 | 3113 ft | 205 kts | 205° |
| 2026-05-07 15:13 | 38.00556 | 15.62474 | 3739 ft | 207 kts | 205° |
| 2026-05-07 15:13 | 37.99331 | 15.61502 | 4310 ft | 210 kts | 206° |
| 2026-05-07 15:14 | 37.98086 | 15.60518 | 4895 ft | 212 kts | 206° |
| 2026-05-07 15:14 | 37.96829 | 15.59531 | 5508 ft | 213 kts | 206° |
| 2026-05-07 15:14 | 37.95578 | 15.58551 | 6159 ft | 211 kts | 206° |
| 2026-05-07 15:14 | 37.94334 | 15.57577 | 6769 ft | 210 kts | 206° |
| 2026-05-07 15:15 | 37.93090 | 15.56607 | 7353 ft | 210 kts | 208° |
| 2026-05-07 15:15 | 37.91845 | 15.55635 | 7934 ft | 210 kts | 209° |
| 2026-05-07 15:15 | 37.90600 | 15.54662 | 8532 ft | 210 kts | 210° |
| 2026-05-07 15:15 | 37.89329 | 15.53735 | 9091 ft | 212 kts | 203° |
| 2026-05-07 15:16 | 37.87904 | 15.53102 | 9409 ft | 225 kts | 200° |
| 2026-05-07 15:16 | 37.86339 | 15.52438 | 9643 ft | 249 kts | 200° |
| 2026-05-07 15:16 | 37.84623 | 15.51711 | 9977 ft | 269 kts | 200° |
| 2026-05-07 15:16 | 37.82792 | 15.50940 | 10326 ft | 288 kts | 200° |
| 2026-05-07 15:17 | 37.80815 | 15.50106 | 10519 ft | 311 kts | 200° |
| 2026-05-07 15:17 | 37.78706 | 15.49211 | 10827 ft | 328 kts | 200° |
| 2026-05-07 15:17 | 37.76515 | 15.48285 | 11444 ft | 333 kts | 200° |
| 2026-05-07 15:17 | 37.74301 | 15.47352 | 12114 ft | 338 kts | 201° |
| 2026-05-07 15:18 | 37.72058 | 15.46403 | 12782 ft | 342 kts | 201° |
| 2026-05-07 15:18 | 37.69816 | 15.45383 | 13448 ft | 345 kts | 203° |
| 2026-05-07 15:18 | 37.67571 | 15.44265 | 14087 ft | 348 kts | 205° |
| 2026-05-07 15:18 | 37.65326 | 15.43099 | 14695 ft | 351 kts | 205° |
| 2026-05-07 15:19 | 37.63055 | 15.41911 | 15321 ft | 354 kts | 205° |
| 2026-05-07 15:19 | 37.60771 | 15.40726 | 15912 ft | 357 kts | 205° |
| 2026-05-07 15:19 | 37.58457 | 15.39536 | 16509 ft | 361 kts | 205° |
| 2026-05-07 15:19 | 37.56083 | 15.38455 | 17088 ft | 368 kts | 196° |
| 2026-05-07 15:20 | 37.53492 | 15.38317 | 17645 ft | 382 kts | 175° |
| 2026-05-07 15:20 | 37.50951 | 15.39454 | 18183 ft | 399 kts | 153° |
| 2026-05-07 15:20 | 37.48845 | 15.41887 | 18628 ft | 416 kts | 129° |
| 2026-05-07 15:20 | 37.47509 | 15.45160 | 19073 ft | 426 kts | 116° |
| 2026-05-07 15:21 | 37.46405 | 15.48635 | 19531 ft | 430 kts | 114° |
| 2026-05-07 15:21 | 37.45371 | 15.52177 | 19979 ft | 434 kts | 112° |
| 2026-05-07 15:21 | 37.44353 | 15.55781 | 20426 ft | 438 kts | 112° |
| 2026-05-07 15:21 | 37.43325 | 15.59395 | 20870 ft | 441 kts | 113° |
| 2026-05-07 15:22 | 37.42266 | 15.63038 | 21314 ft | 445 kts | 114° |
| 2026-05-07 15:22 | 37.41174 | 15.66702 | 21739 ft | 448 kts | 114° |
| 2026-05-07 15:22 | 37.40065 | 15.70362 | 22174 ft | 452 kts | 114° |
| 2026-05-07 15:22 | 37.38934 | 15.74069 | 22600 ft | 455 kts | 114° |
| 2026-05-07 15:23 | 37.37791 | 15.77805 | 23007 ft | 459 kts | 114° |
| 2026-05-07 15:23 | 37.36645 | 15.81554 | 23415 ft | 462 kts | 114° |
| 2026-05-07 15:23 | 37.35487 | 15.85345 | 23749 ft | 466 kts | 114° |
| 2026-05-07 15:23 | 37.34323 | 15.89155 | 24064 ft | 470 kts | 114° |
| 2026-05-07 15:24 | 37.33146 | 15.93011 | 24376 ft | 474 kts | 114° |
| 2026-05-07 15:24 | 37.31965 | 15.96881 | 24691 ft | 477 kts | 114° |
| 2026-05-07 15:24 | 37.30775 | 16.00784 | 25000 ft | 481 kts | 114° |
| 2026-05-07 15:24 | 37.29569 | 16.04730 | 25295 ft | 484 kts | 114° |
| 2026-05-07 15:25 | 37.28357 | 16.08678 | 25589 ft | 488 kts | 115° |
| 2026-05-07 15:25 | 37.27130 | 16.12666 | 25881 ft | 491 kts | 115° |
| 2026-05-07 15:25 | 37.25896 | 16.16678 | 26181 ft | 494 kts | 115° |
| 2026-05-07 15:25 | 37.24653 | 16.20714 | 26483 ft | 497 kts | 115° |
| 2026-05-07 15:26 | 37.23399 | 16.24775 | 26781 ft | 500 kts | 115° |
| 2026-05-07 15:26 | 37.22138 | 16.28848 | 27070 ft | 503 kts | 115° |
| 2026-05-07 15:26 | 37.20863 | 16.32972 | 27380 ft | 506 kts | 114° |
| 2026-05-07 15:26 | 37.19581 | 16.37106 | 27675 ft | 509 kts | 115° |
| 2026-05-07 15:27 | 37.18291 | 16.41257 | 27964 ft | 512 kts | 115° |
| 2026-05-07 15:27 | 37.16979 | 16.45475 | 28256 ft | 515 kts | 114° |
| 2026-05-07 15:27 | 37.15689 | 16.49609 | 28529 ft | 517 kts | 115° |
| 2026-05-07 15:27 | 37.14376 | 16.53818 | 28804 ft | 520 kts | 114° |
| 2026-05-07 15:28 | 37.13061 | 16.58039 | 29069 ft | 522 kts | 114° |
| 2026-05-07 15:28 | 37.11735 | 16.62293 | 29313 ft | 525 kts | 115° |
| 2026-05-07 15:28 | 37.10401 | 16.66556 | 29582 ft | 527 kts | 115° |
| 2026-05-07 15:28 | 37.09058 | 16.70841 | 29837 ft | 530 kts | 115° |
| 2026-05-07 15:29 | 37.07691 | 16.75196 | 30074 ft | 532 kts | 115° |
| 2026-05-07 15:29 | 37.06333 | 16.79505 | 30380 ft | 532 kts | 115° |
| 2026-05-07 15:29 | 37.05008 | 16.83824 | 30716 ft | 531 kts | 113° |
| 2026-05-07 15:29 | 37.03783 | 16.88172 | 31043 ft | 531 kts | 111° |
| 2026-05-07 15:30 | 37.02632 | 16.92576 | 31374 ft | 531 kts | 110° |
| 2026-05-07 15:30 | 37.01522 | 16.96989 | 31703 ft | 530 kts | 110° |
| 2026-05-07 15:30 | 37.00413 | 17.01390 | 32031 ft | 530 kts | 110° |
| 2026-05-07 15:30 | 36.99282 | 17.05765 | 32364 ft | 529 kts | 111° |
| 2026-05-07 15:31 | 36.98121 | 17.10128 | 32696 ft | 528 kts | 111° |
| 2026-05-07 15:31 | 36.96941 | 17.14471 | 33010 ft | 527 kts | 111° |
| 2026-05-07 15:31 | 36.95756 | 17.18800 | 33331 ft | 526 kts | 111° |
| 2026-05-07 15:31 | 36.94573 | 17.23118 | 33650 ft | 526 kts | 111° |
| 2026-05-07 15:32 | 36.93382 | 17.27452 | 33964 ft | 525 kts | 111° |
| 2026-05-07 15:32 | 36.92199 | 17.31762 | 34236 ft | 525 kts | 111° |
| 2026-05-07 15:32 | 36.91016 | 17.36092 | 34508 ft | 525 kts | 111° |
| 2026-05-07 15:32 | 36.89849 | 17.40383 | 34770 ft | 524 kts | 111° |
| 2026-05-07 15:33 | 36.88673 | 17.44705 | 35028 ft | 524 kts | 111° |
| 2026-05-07 15:33 | 36.87501 | 17.49003 | 35270 ft | 523 kts | 111° |
| 2026-05-07 15:33 | 36.86321 | 17.53316 | 35524 ft | 523 kts | 111° |
| 2026-05-07 15:33 | 36.85146 | 17.57601 | 35765 ft | 522 kts | 111° |
| 2026-05-07 15:34 | 36.83968 | 17.61885 | 36008 ft | 522 kts | 111° |
| 2026-05-07 15:34 | 36.82787 | 17.66165 | 36237 ft | 521 kts | 111° |
| 2026-05-07 15:34 | 36.81608 | 17.70439 | 36473 ft | 521 kts | 111° |
| 2026-05-07 15:34 | 36.80429 | 17.74718 | 36699 ft | 520 kts | 111° |
| 2026-05-07 15:35 | 36.79234 | 17.79043 | 36887 ft | 520 kts | 111° |
| 2026-05-07 15:35 | 36.78067 | 17.83246 | 36952 ft | 520 kts | 111° |
| 2026-05-07 15:35 | 36.75682 | 17.91808 | 36953 ft | 520 kts | 111° |
| 2026-05-07 15:36 | 36.73323 | 18.00277 | 36956 ft | 519 kts | 111° |
| 2026-05-07 15:36 | 36.70936 | 18.08817 | 36961 ft | 519 kts | 111° |
| 2026-05-07 15:37 | 36.68549 | 18.17317 | 36965 ft | 519 kts | 111° |
| 2026-05-07 15:37 | 36.66162 | 18.25820 | 36969 ft | 520 kts | 111° |
| 2026-05-07 15:38 | 36.63761 | 18.34308 | 36977 ft | 520 kts | 111° |
| 2026-05-07 15:38 | 36.61356 | 18.42805 | 36982 ft | 520 kts | 111° |
| 2026-05-07 15:39 | 36.58948 | 18.51293 | 36987 ft | 520 kts | 111° |
| 2026-05-07 15:39 | 36.56527 | 18.59769 | 36994 ft | 520 kts | 111° |
| 2026-05-07 15:40 | 36.54100 | 18.68256 | 36997 ft | 520 kts | 111° |
| 2026-05-07 15:40 | 36.51671 | 18.76735 | 37003 ft | 521 kts | 111° |
| 2026-05-07 15:41 | 36.49414 | 18.83699 | 37001 ft | 518 kts | 120° |
| 2026-05-07 15:41 | 36.45775 | 18.91412 | 37004 ft | 517 kts | 124° |
| 2026-05-07 15:42 | 36.42091 | 18.99076 | 37003 ft | 517 kts | 123° |
| 2026-05-07 15:42 | 36.38418 | 19.06751 | 37004 ft | 517 kts | 123° |
| 2026-05-07 15:43 | 36.34734 | 19.14431 | 37008 ft | 518 kts | 123° |
| 2026-05-07 15:43 | 36.31032 | 19.22110 | 37009 ft | 518 kts | 123° |
| 2026-05-07 15:44 | 36.27337 | 19.29760 | 37009 ft | 518 kts | 123° |
| 2026-05-07 15:44 | 36.23643 | 19.37424 | 37012 ft | 518 kts | 123° |
| 2026-05-07 15:45 | 36.19931 | 19.45087 | 37015 ft | 519 kts | 123° |
| 2026-05-07 15:45 | 36.16209 | 19.52715 | 37017 ft | 519 kts | 123° |
| 2026-05-07 15:46 | 36.10609 | 19.64188 | 37015 ft | 519 kts | 123° |
| 2026-05-07 15:47 | 36.06869 | 19.71851 | 37017 ft | 520 kts | 123° |
| 2026-05-07 15:47 | 36.03131 | 19.79491 | 37017 ft | 520 kts | 123° |
| 2026-05-07 15:48 | 35.99381 | 19.87131 | 37022 ft | 520 kts | 123° |
| 2026-05-07 15:48 | 35.95622 | 19.94752 | 37022 ft | 520 kts | 122° |
| 2026-05-07 15:49 | 35.91858 | 20.02372 | 37027 ft | 520 kts | 123° |
| 2026-05-07 15:49 | 35.88008 | 20.09980 | 37035 ft | 520 kts | 123° |
| 2026-05-07 15:50 | 35.84144 | 20.17467 | 37044 ft | 520 kts | 123° |
| 2026-05-07 15:50 | 35.80237 | 20.25039 | 37054 ft | 520 kts | 123° |
| 2026-05-07 15:51 | 35.76381 | 20.32538 | 37046 ft | 519 kts | 123° |
| 2026-05-07 15:51 | 35.72525 | 20.40054 | 37057 ft | 519 kts | 123° |
| 2026-05-07 15:52 | 35.68672 | 20.47548 | 37061 ft | 518 kts | 123° |
| 2026-05-07 15:52 | 35.64800 | 20.55017 | 37062 ft | 518 kts | 123° |
| 2026-05-07 15:53 | 35.60920 | 20.62486 | 37064 ft | 517 kts | 123° |
| 2026-05-07 15:53 | 35.57372 | 20.70152 | 37069 ft | 517 kts | 111° |
| 2026-05-07 15:54 | 35.55505 | 20.78625 | 37070 ft | 511 kts | 94° |
| 2026-05-07 15:54 | 35.54658 | 20.87247 | 37074 ft | 510 kts | 94° |
| 2026-05-07 15:55 | 35.53777 | 20.95886 | 37077 ft | 510 kts | 94° |
| 2026-05-07 15:55 | 35.52903 | 21.04519 | 37081 ft | 509 kts | 94° |
| 2026-05-07 15:56 | 35.52030 | 21.13148 | 37079 ft | 509 kts | 94° |
| 2026-05-07 15:56 | 35.51147 | 21.21777 | 37082 ft | 510 kts | 94° |
| 2026-05-07 15:57 | 35.50227 | 21.30474 | 37074 ft | 510 kts | 94° |
| 2026-05-07 15:57 | 35.49308 | 21.39060 | 37079 ft | 511 kts | 94° |
| 2026-05-07 15:58 | 35.48379 | 21.47767 | 37079 ft | 512 kts | 94° |
| 2026-05-07 15:58 | 35.47452 | 21.56429 | 37075 ft | 513 kts | 94° |
| 2026-05-07 15:59 | 35.46514 | 21.65105 | 37076 ft | 514 kts | 94° |
| 2026-05-07 15:59 | 35.45568 | 21.73801 | 37080 ft | 515 kts | 94° |
| 2026-05-07 16:00 | 35.44620 | 21.82523 | 37086 ft | 516 kts | 94° |
| 2026-05-07 16:00 | 35.43660 | 21.91234 | 37091 ft | 517 kts | 94° |
| 2026-05-07 16:01 | 35.42685 | 21.99976 | 37095 ft | 518 kts | 94° |
| 2026-05-07 16:01 | 35.41707 | 22.08722 | 37099 ft | 518 kts | 94° |
| 2026-05-07 16:02 | 35.40726 | 22.17489 | 37103 ft | 519 kts | 94° |
| 2026-05-07 16:02 | 35.39728 | 22.26263 | 37102 ft | 520 kts | 94° |
| 2026-05-07 16:03 | 35.38718 | 22.35039 | 37111 ft | 521 kts | 94° |
| 2026-05-07 16:03 | 35.37712 | 22.43834 | 37127 ft | 521 kts | 94° |
| 2026-05-07 16:04 | 35.36706 | 22.52620 | 37128 ft | 521 kts | 94° |
| 2026-05-07 16:04 | 35.35687 | 22.61410 | 37138 ft | 521 kts | 94° |
| 2026-05-07 16:05 | 35.34653 | 22.70261 | 37142 ft | 521 kts | 94° |
| 2026-05-07 16:05 | 35.33617 | 22.79058 | 37148 ft | 521 kts | 94° |
| 2026-05-07 16:06 | 35.32577 | 22.87841 | 37143 ft | 521 kts | 93° |
| 2026-05-07 16:06 | 35.31525 | 22.96626 | 37149 ft | 521 kts | 93° |
| 2026-05-07 16:07 | 35.30473 | 23.05391 | 37146 ft | 521 kts | 93° |
| 2026-05-07 16:07 | 35.29419 | 23.14140 | 37152 ft | 520 kts | 93° |
| 2026-05-07 16:08 | 35.28362 | 23.22895 | 37150 ft | 519 kts | 93° |
| 2026-05-07 16:08 | 35.27829 | 23.27266 | 37000 ft | 519 kts | 93° |
| 2026-05-07 16:08 | 35.27292 | 23.31631 | 36737 ft | 518 kts | 93° |
| 2026-05-07 16:08 | 35.26754 | 23.35996 | 36487 ft | 519 kts | 93° |
| 2026-05-07 16:09 | 35.26218 | 23.40365 | 36229 ft | 519 kts | 93° |
| 2026-05-07 16:09 | 35.25684 | 23.44714 | 35981 ft | 520 kts | 93° |
| 2026-05-07 16:09 | 35.25145 | 23.49099 | 35742 ft | 520 kts | 93° |
| 2026-05-07 16:09 | 35.24605 | 23.53465 | 35488 ft | 521 kts | 93° |
| 2026-05-07 16:10 | 35.24056 | 23.57856 | 35248 ft | 522 kts | 93° |
| 2026-05-07 16:10 | 35.23504 | 23.62243 | 35009 ft | 523 kts | 94° |
| 2026-05-07 16:10 | 35.22952 | 23.66639 | 34769 ft | 523 kts | 93° |
| 2026-05-07 16:10 | 35.22610 | 23.71049 | 34546 ft | 519 kts | 88° |
| 2026-05-07 16:11 | 35.22380 | 23.75448 | 34312 ft | 520 kts | 88° |
| 2026-05-07 16:11 | 35.22146 | 23.79858 | 34077 ft | 520 kts | 88° |
| 2026-05-07 16:11 | 35.21909 | 23.84277 | 33669 ft | 520 kts | 88° |
| 2026-05-07 16:11 | 35.21671 | 23.88715 | 32607 ft | 526 kts | 88° |
| 2026-05-07 16:12 | 35.21426 | 23.93250 | 31587 ft | 531 kts | 89° |
| 2026-05-07 16:12 | 35.21183 | 23.97698 | 30976 ft | 527 kts | 89° |
| 2026-05-07 16:12 | 35.20933 | 24.02196 | 30331 ft | 524 kts | 89° |
| 2026-05-07 16:12 | 35.20681 | 24.06637 | 29612 ft | 519 kts | 90° |
| 2026-05-07 16:13 | 35.20430 | 24.10990 | 29000 ft | 513 kts | 90° |
| 2026-05-07 16:13 | 35.20180 | 24.15337 | 28357 ft | 506 kts | 90° |
| 2026-05-07 16:13 | 35.19937 | 24.19596 | 27725 ft | 500 kts | 90° |
| 2026-05-07 16:13 | 35.19698 | 24.23808 | 27129 ft | 495 kts | 90° |
| 2026-05-07 16:14 | 35.19460 | 24.27973 | 26521 ft | 490 kts | 90° |
| 2026-05-07 16:14 | 35.19301 | 24.30724 | 26137 ft | 487 kts | 91° |
| 2026-05-07 16:14 | 35.19062 | 24.34837 | 25540 ft | 482 kts | 91° |
| 2026-05-07 16:14 | 35.18825 | 24.38917 | 24949 ft | 478 kts | 91° |
| 2026-05-07 16:15 | 35.18588 | 24.42928 | 24377 ft | 473 kts | 91° |
| 2026-05-07 16:15 | 35.18352 | 24.46925 | 23830 ft | 468 kts | 91° |
| 2026-05-07 16:15 | 35.18120 | 24.50854 | 23261 ft | 461 kts | 92° |
| 2026-05-07 16:15 | 35.17891 | 24.54739 | 22714 ft | 455 kts | 92° |
| 2026-05-07 16:16 | 35.17663 | 24.58568 | 22218 ft | 448 kts | 92° |
| 2026-05-07 16:16 | 35.17434 | 24.62355 | 21738 ft | 442 kts | 92° |
| 2026-05-07 16:16 | 35.17209 | 24.66073 | 21254 ft | 436 kts | 92° |
| 2026-05-07 16:16 | 35.16983 | 24.69746 | 20777 ft | 430 kts | 92° |
| 2026-05-07 16:17 | 35.16756 | 24.73366 | 20289 ft | 426 kts | 93° |
| 2026-05-07 16:17 | 35.16527 | 24.76961 | 19797 ft | 422 kts | 93° |
| 2026-05-07 16:17 | 35.16296 | 24.80560 | 19285 ft | 419 kts | 93° |
| 2026-05-07 16:17 | 35.16067 | 24.84109 | 18775 ft | 417 kts | 93° |
| 2026-05-07 16:18 | 35.15859 | 24.87635 | 18230 ft | 414 kts | 90° |
| 2026-05-07 16:18 | 35.16084 | 24.91108 | 17697 ft | 408 kts | 77° |
| 2026-05-07 16:18 | 35.16897 | 24.94392 | 17191 ft | 402 kts | 64° |
| 2026-05-07 16:18 | 35.18235 | 24.97348 | 16669 ft | 395 kts | 51° |
| 2026-05-07 16:19 | 35.19996 | 24.99882 | 16161 ft | 388 kts | 44° |
| 2026-05-07 16:19 | 35.21834 | 25.02293 | 15658 ft | 386 kts | 44° |
| 2026-05-07 16:19 | 35.23649 | 25.04689 | 15140 ft | 385 kts | 44° |
| 2026-05-07 16:19 | 35.25465 | 25.07092 | 14637 ft | 382 kts | 44° |
| 2026-05-07 16:20 | 35.27266 | 25.09478 | 14135 ft | 381 kts | 44° |
| 2026-05-07 16:20 | 35.29053 | 25.11844 | 13665 ft | 377 kts | 44° |
| 2026-05-07 16:20 | 35.30825 | 25.14195 | 13178 ft | 374 kts | 45° |
| 2026-05-07 16:20 | 35.32594 | 25.16541 | 12681 ft | 371 kts | 45° |
| 2026-05-07 16:21 | 35.34342 | 25.18851 | 12137 ft | 368 kts | 44° |
| 2026-05-07 16:21 | 35.36124 | 25.21078 | 11576 ft | 366 kts | 43° |
| 2026-05-07 16:21 | 35.37935 | 25.23224 | 11176 ft | 359 kts | 41° |
| 2026-05-07 16:21 | 35.39732 | 25.25306 | 10760 ft | 353 kts | 41° |
| 2026-05-07 16:22 | 35.41482 | 25.27327 | 10627 ft | 338 kts | 41° |
| 2026-05-07 16:22 | 35.43156 | 25.29270 | 10514 ft | 325 kts | 41° |
| 2026-05-07 16:22 | 35.44761 | 25.31146 | 10393 ft | 313 kts | 42° |
| 2026-05-07 16:22 | 35.46314 | 25.32972 | 10271 ft | 302 kts | 42° |
| 2026-05-07 16:23 | 35.47803 | 25.34728 | 10148 ft | 294 kts | 42° |
| 2026-05-07 16:23 | 35.49260 | 25.36453 | 10131 ft | 285 kts | 42° |
| 2026-05-07 16:23 | 35.50650 | 25.38102 | 10131 ft | 272 kts | 42° |
| 2026-05-07 16:23 | 35.52038 | 25.39748 | 9718 ft | 276 kts | 42° |
| 2026-05-07 16:24 | 35.53372 | 25.41332 | 9561 ft | 267 kts | 42° |
| 2026-05-07 16:24 | 35.54688 | 25.42957 | 9280 ft | 264 kts | 50° |
| 2026-05-07 16:24 | 35.55424 | 25.44962 | 8978 ft | 265 kts | 82° |
| 2026-05-07 16:24 | 35.55165 | 25.47202 | 8628 ft | 266 kts | 115° |
| 2026-05-07 16:25 | 35.53964 | 25.48894 | 8280 ft | 266 kts | 149° |
| 2026-05-07 16:25 | 35.52217 | 25.49517 | 7955 ft | 264 kts | 182° |
| 2026-05-07 16:25 | 35.50484 | 25.48909 | 7626 ft | 261 kts | 214° |
| 2026-05-07 16:25 | 35.49261 | 25.47315 | 7296 ft | 257 kts | 239° |
| 2026-05-07 16:26 | 35.48573 | 25.45987 | 7037 ft | 258 kts | 239° |
| 2026-05-07 16:26 | 35.47697 | 25.44312 | 6748 ft | 258 kts | 238° |
| 2026-05-07 16:26 | 35.46731 | 25.42463 | 6428 ft | 257 kts | 238° |
| 2026-05-07 16:26 | 35.45771 | 25.40624 | 6116 ft | 255 kts | 238° |
| 2026-05-07 16:27 | 35.44834 | 25.38789 | 5800 ft | 253 kts | 243° |
| 2026-05-07 16:27 | 35.44385 | 25.36743 | 5505 ft | 248 kts | 270° |
| 2026-05-07 16:27 | 35.44728 | 25.34706 | 5196 ft | 245 kts | 297° |
| 2026-05-07 16:27 | 35.45771 | 25.33082 | 4871 ft | 244 kts | 322° |
| 2026-05-07 16:28 | 35.47287 | 25.32192 | 4523 ft | 244 kts | 348° |
| 2026-05-07 16:28 | 35.48970 | 25.32216 | 4192 ft | 244 kts | 14° |
| 2026-05-07 16:28 | 35.50467 | 25.33151 | 3867 ft | 244 kts | 41° |
| 2026-05-07 16:28 | 35.51540 | 25.34755 | 3522 ft | 244 kts | 56° |
| 2026-05-07 16:29 | 35.52198 | 25.36656 | 3196 ft | 243 kts | 82° |
| 2026-05-07 16:29 | 35.52103 | 25.38697 | 2886 ft | 241 kts | 107° |
| 2026-05-07 16:29 | 35.51304 | 25.40488 | 2564 ft | 240 kts | 133° |
| 2026-05-07 16:29 | 35.49967 | 25.41670 | 2250 ft | 238 kts | 158° |
| 2026-05-07 16:30 | 35.48353 | 25.42010 | 2017 ft | 237 kts | 184° |
| 2026-05-07 16:30 | 35.46779 | 25.41463 | 2006 ft | 238 kts | 210° |
| 2026-05-07 16:30 | 35.45535 | 25.40144 | 2006 ft | 238 kts | 233° |
| 2026-05-07 16:30 | 35.44498 | 25.38570 | 2002 ft | 238 kts | 218° |
| 2026-05-07 16:31 | 35.42969 | 25.37883 | 2010 ft | 239 kts | 179° |
| 2026-05-07 16:31 | 35.41428 | 25.38532 | 2011 ft | 239 kts | 143° |
| 2026-05-07 16:31 | 35.40200 | 25.39909 | 2015 ft | 239 kts | 137° |
| 2026-05-07 16:31 | 35.39029 | 25.41275 | 2006 ft | 225 kts | 137° |
| 2026-05-07 16:32 | 35.37934 | 25.42557 | 2001 ft | 210 kts | 135° |
| 2026-05-07 16:32 | 35.36791 | 25.43543 | 2013 ft | 198 kts | 167° |
| 2026-05-07 16:32 | 35.35472 | 25.43303 | 2010 ft | 192 kts | 216° |
| 2026-05-07 16:32 | 35.34703 | 25.42034 | 2025 ft | 191 kts | 245° |
| 2026-05-07 16:33 | 35.34184 | 25.40519 | 2014 ft | 190 kts | 249° |
| 2026-05-07 16:33 | 35.33698 | 25.39014 | 2009 ft | 190 kts | 249° |
| 2026-05-07 16:33 | 35.33196 | 25.37508 | 2013 ft | 191 kts | 248° |
| 2026-05-07 16:33 | 35.32774 | 25.35990 | 2014 ft | 187 kts | 261° |
| 2026-05-07 16:34 | 35.32783 | 25.34414 | 2013 ft | 185 kts | 278° |
| 2026-05-07 16:34 | 35.32928 | 25.32846 | 2011 ft | 185 kts | 276° |
| 2026-05-07 16:34 | 35.33046 | 25.31275 | 1999 ft | 186 kts | 275° |
| 2026-05-07 16:34 | 35.33156 | 25.29723 | 1712 ft | 177 kts | 275° |
| 2026-05-07 16:35 | 35.33259 | 25.28265 | 1441 ft | 167 kts | 275° |
| 2026-05-07 16:35 | 35.33352 | 25.26915 | 1203 ft | 152 kts | 275° |
| 2026-05-07 16:35 | 35.33438 | 25.25661 | 966 ft | 145 kts | 275° |
| 2026-05-07 16:35 | 35.33522 | 25.24444 | 747 ft | 143 kts | 275° |
| 2026-05-07 16:36 | 35.33607 | 25.23235 | 535 ft | 142 kts | 275° |
| 2026-05-07 16:36 | 35.33691 | 25.22040 | 367 ft | 138 kts | 275° |
| 2026-05-07 16:36 | 35.33792 | 25.20860 | 396 ft | 143 kts | 276° |
| 2026-05-07 16:36 | 35.33863 | 25.19652 | 333 ft | 139 kts | 274° |
| 2026-05-07 16:37 | 35.33937 | 25.18496 | 108 ft | 131 kts | 276° |
| 2026-05-07 16:37 | 35.34008 | 25.17544 | 91 ft | 88 kts | 275° |
| 2026-05-07 16:37 | 35.34007 | 25.17125 | 91 ft | 11 kts | 225° |
| 2026-05-07 16:37 | 35.33983 | 25.17083 | 92 ft | 17 kts | 239° |
| 2026-05-07 16:38 | 35.33972 | 25.17059 | 90 ft | 0 kts | 239° |
| 2026-05-07 16:38 | 35.33953 | 25.17064 | 90 ft | 7 kts | 131° |
| 2026-05-07 16:38 | 35.33938 | 25.17112 | 91 ft | 8 kts | 98° |
| 2026-05-07 16:38 | 35.33930 | 25.17236 | 91 ft | 18 kts | 94° |
| 2026-05-07 16:39 | 35.33916 | 25.17361 | 91 ft | 11 kts | 118° |
| 2026-05-07 16:39 | 35.33858 | 25.17374 | 92 ft | 7 kts | 182° |
| 2026-05-07 16:39 | 35.33810 | 25.17369 | 91 ft | 6 kts | 185° |
| 2026-05-07 16:39 | 35.33780 | 25.17345 | 93 ft | 6 kts | 261° |
| 2026-05-07 16:40 | 35.33779 | 25.17309 | 91 ft | 0 kts | 273° |